createdAt,value
2022-09-03T00:00:05.090Z,16.92
2022-09-03T00:02:40.150Z,16.86
2022-09-03T00:05:19.061Z,16.86
2022-09-03T00:07:55.756Z,16.90
2022-09-03T00:10:44.464Z,16.88
2022-09-03T00:13:16.514Z,16.72
2022-09-03T00:15:43.630Z,16.80
2022-09-03T00:18:20.958Z,16.75
2022-09-03T00:21:08.402Z,16.90
2022-09-03T00:23:40.380Z,16.88
2022-09-03T00:26:13.290Z,16.88
2022-09-03T00:28:50.563Z,16.82
2022-09-03T00:31:24.526Z,16.87
2022-09-03T00:33:56.621Z,16.85
2022-09-03T00:36:32.238Z,16.78
2022-09-03T00:38:59.222Z,16.88
2022-09-03T00:41:39.016Z,16.82
2022-09-03T00:44:38.034Z,16.83
2022-09-03T00:47:18.765Z,16.78
2022-09-03T00:50:05.109Z,16.82
2022-09-03T00:52:50.188Z,16.93
2022-09-03T00:55:31.992Z,16.77
2022-09-03T00:58:26.068Z,16.85
2022-09-03T01:00:53.549Z,16.68
2022-09-03T01:03:41.007Z,16.83
2022-09-03T01:06:15.764Z,16.87
2022-09-03T01:09:09.581Z,16.87
2022-09-03T01:11:59.426Z,16.83
2022-09-03T01:15:06.679Z,16.88
2022-09-03T01:17:48.624Z,16.71
2022-09-03T01:20:22.369Z,16.75
2022-09-03T01:22:57.005Z,16.82
2022-09-03T01:25:40.559Z,16.76
2022-09-03T01:28:20.546Z,16.70
2022-09-03T01:31:02.774Z,16.59
2022-09-03T01:33:44.343Z,16.73
2022-09-03T01:36:28.379Z,16.67
2022-09-03T01:39:39.273Z,16.62
2022-09-03T01:42:21.373Z,16.66
2022-09-03T01:45:23.282Z,16.83
2022-09-03T01:48:43.591Z,16.76
2022-09-03T01:51:19.644Z,16.46
2022-09-03T01:54:21.347Z,16.55
2022-09-03T01:57:07.349Z,16.58
2022-09-03T01:59:58.981Z,16.60
2022-09-03T02:02:28.320Z,16.57
2022-09-03T02:05:12.447Z,16.46
2022-09-03T02:07:42.778Z,16.65
2022-09-03T02:10:19.837Z,16.45
2022-09-03T02:12:52.403Z,16.49
2022-09-03T02:15:23.173Z,16.53
2022-09-03T02:17:56.365Z,16.39
2022-09-03T02:20:27.088Z,16.56
2022-09-03T02:22:54.618Z,16.36
2022-09-03T02:25:26.562Z,16.57
2022-09-03T02:27:53.604Z,16.51
2022-09-03T02:30:20.313Z,16.38
2022-09-03T02:32:47.092Z,16.35
2022-09-03T02:35:13.976Z,16.16
2022-09-03T02:37:40.708Z,16.16
2022-09-03T02:40:10.328Z,16.34
2022-09-03T02:42:37.197Z,16.23
2022-09-03T02:45:27.399Z,16.22
2022-09-03T02:47:58.741Z,16.21
2022-09-03T02:50:25.740Z,16.37
2022-09-03T02:52:53.015Z,16.14
2022-09-03T02:55:20.430Z,16.19
2022-09-03T02:57:47.161Z,16.06
2022-09-03T03:00:15.237Z,16.06
2022-09-03T03:02:42.248Z,16.01
2022-09-03T03:05:15.056Z,15.93
2022-09-03T03:07:42.012Z,15.83
2022-09-03T03:10:09.296Z,15.81
2022-09-03T03:12:35.983Z,15.72
2022-09-03T03:15:02.694Z,15.71
2022-09-03T03:17:29.531Z,15.67
2022-09-03T03:19:56.212Z,15.58
2022-09-03T03:22:22.962Z,15.56
2022-09-03T03:24:50.564Z,15.48
2022-09-03T03:27:17.321Z,15.50
2022-09-03T03:29:43.988Z,15.37
2022-09-03T03:32:10.722Z,15.55
2022-09-03T03:34:38.477Z,15.39
2022-09-03T03:37:05.951Z,15.39
2022-09-03T03:39:32.665Z,15.34
2022-09-03T03:41:59.449Z,15.45
2022-09-03T03:44:26.541Z,15.31
2022-09-03T03:46:53.992Z,15.21
2022-09-03T03:49:20.732Z,15.28
2022-09-03T03:51:47.427Z,15.07
2022-09-03T03:54:14.490Z,15.12
2022-09-03T03:56:44.498Z,15.13
2022-09-03T03:59:17.527Z,14.97
2022-09-03T04:01:44.326Z,14.96
2022-09-03T04:04:11.081Z,14.95
2022-09-03T04:06:37.868Z,14.93
2022-09-03T04:09:04.560Z,14.92
2022-09-03T04:11:31.304Z,14.83
2022-09-03T04:13:58.128Z,14.79
2022-09-03T04:16:27.124Z,14.76
2022-09-03T04:18:55.475Z,14.70
2022-09-03T04:21:25.389Z,14.65
2022-09-03T04:23:55.553Z,14.57
2022-09-03T04:26:28.662Z,14.65
2022-09-03T04:28:55.522Z,14.62
2022-09-03T04:31:22.547Z,14.59
2022-09-03T04:33:49.739Z,14.56
2022-09-03T04:36:18.908Z,14.59
2022-09-03T04:38:47.973Z,14.59
2022-09-03T04:41:27.207Z,14.46
2022-09-03T04:43:55.766Z,14.35
2022-09-03T04:46:26.178Z,14.31
2022-09-03T04:48:54.988Z,14.27
2022-09-03T04:51:28.805Z,14.37
2022-09-03T04:53:58.945Z,14.30
2022-09-03T04:56:32.847Z,14.40
2022-09-03T04:59:04.012Z,14.33
2022-09-03T05:01:33.647Z,14.28
2022-09-03T05:04:00.965Z,14.27
2022-09-03T05:06:29.425Z,14.31
2022-09-03T05:08:56.974Z,14.40
2022-09-03T05:11:25.113Z,14.34
2022-09-03T05:13:54.274Z,14.38
2022-09-03T05:16:22.685Z,14.38
2022-09-03T05:18:52.891Z,14.42
2022-09-03T05:21:20.292Z,14.42
2022-09-03T05:23:50.340Z,14.56
2022-09-03T05:26:20.490Z,14.63
2022-09-03T05:28:48.382Z,14.62
2022-09-03T05:31:18.070Z,14.73
2022-09-03T05:33:50.299Z,14.81
2022-09-03T05:36:23.089Z,14.98
2022-09-03T05:38:50.587Z,14.97
2022-09-03T05:41:19.121Z,15.05
2022-09-03T05:43:51.986Z,15.13
2022-09-03T05:46:19.370Z,15.18
2022-09-03T05:48:46.141Z,15.20
2022-09-03T05:51:16.405Z,15.32
2022-09-03T05:53:46.163Z,15.29
2022-09-03T05:56:19.107Z,15.52
2022-09-03T05:58:48.359Z,15.49
2022-09-03T06:01:18.557Z,15.66
2022-09-03T06:03:46.663Z,15.61
2022-09-03T06:06:14.188Z,15.77
2022-09-03T06:08:42.231Z,15.98
2022-09-03T06:11:09.459Z,15.95
2022-09-03T06:13:36.501Z,16.01
2022-09-03T06:16:07.124Z,16.02
2022-09-03T06:18:35.478Z,16.24
2022-09-03T06:21:04.885Z,16.46
2022-09-03T06:23:33.208Z,17.00
2022-09-03T06:26:08.423Z,16.96
2022-09-03T06:28:38.898Z,16.69
2022-09-03T06:31:08.233Z,16.93
2022-09-03T06:33:36.983Z,17.35
2022-09-03T06:36:10.156Z,16.97
2022-09-03T06:38:38.284Z,17.45
2022-09-03T06:41:08.326Z,17.77
2022-09-03T06:43:39.411Z,18.21
2022-09-03T06:46:08.015Z,17.94
2022-09-03T06:48:36.464Z,18.34
2022-09-03T06:51:06.910Z,18.01
2022-09-03T06:53:36.450Z,18.90
2022-09-03T06:56:07.627Z,18.40
2022-09-03T06:58:42.920Z,18.78
2022-09-03T07:01:19.644Z,18.56
2022-09-03T07:03:48.373Z,18.38
2022-09-03T07:06:17.585Z,17.97
2022-09-03T07:08:46.342Z,17.85
2022-09-03T07:11:19.574Z,17.75
2022-09-03T07:13:48.152Z,17.69
2022-09-03T07:16:17.887Z,17.80
2022-09-03T07:18:45.826Z,17.86
2022-09-03T07:21:27.210Z,18.16
2022-09-03T07:23:55.443Z,18.27
2022-09-03T07:26:24.976Z,18.31
2022-09-03T07:28:54.607Z,18.60
2022-09-03T07:31:34.835Z,18.76
2022-09-03T07:34:05.615Z,18.84
2022-09-03T07:36:38.938Z,18.96
2022-09-03T07:39:06.109Z,19.01
2022-09-03T07:41:33.506Z,19.15
2022-09-03T07:44:05.959Z,19.09
2022-09-03T07:46:35.665Z,19.42
2022-09-03T07:49:03.078Z,19.52
2022-09-03T07:51:32.631Z,19.76
2022-09-03T07:54:06.938Z,19.47
2022-09-03T07:56:35.905Z,19.79
2022-09-03T07:59:04.366Z,19.58
2022-09-03T08:01:32.920Z,19.75
2022-09-03T08:04:01.862Z,19.81
2022-09-03T08:06:30.139Z,20.07
2022-09-03T08:09:06.519Z,19.98
2022-09-03T08:11:37.106Z,20.43
2022-09-03T08:14:06.985Z,20.35
2022-09-03T08:16:39.894Z,20.44
2022-09-03T08:19:07.706Z,20.66
2022-09-03T08:21:35.729Z,20.60
2022-09-03T08:24:02.976Z,20.45
2022-09-03T08:26:36.733Z,20.78
2022-09-03T08:29:04.970Z,20.82
2022-09-03T08:31:32.740Z,20.98
2022-09-03T08:34:06.785Z,21.07
2022-09-03T08:36:36.458Z,20.96
2022-09-03T08:39:10.705Z,21.04
2022-09-03T08:41:46.956Z,21.04
2022-09-03T08:44:46.968Z,21.40
2022-09-03T08:47:20.621Z,21.51
2022-09-03T08:50:06.092Z,21.48
2022-09-03T08:52:41.428Z,21.60
2022-09-03T08:55:21.462Z,21.70
2022-09-03T08:57:58.423Z,21.64
2022-09-03T09:00:25.623Z,21.98
2022-09-03T09:03:23.039Z,21.78
2022-09-03T09:05:58.401Z,21.81
2022-09-03T09:08:45.019Z,21.95
2022-09-03T09:11:33.643Z,21.79
2022-09-03T09:14:14.347Z,22.07
2022-09-03T09:17:31.593Z,22.31
2022-09-03T09:20:12.851Z,21.85
2022-09-03T09:22:47.310Z,21.81
2022-09-03T09:25:21.378Z,21.99
2022-09-03T09:27:58.608Z,22.01
2022-09-03T09:30:28.096Z,21.84
2022-09-03T09:32:56.044Z,22.04
2022-09-03T09:35:24.132Z,21.66
2022-09-03T09:38:00.275Z,22.07
2022-09-03T09:40:34.723Z,22.30
2022-09-03T09:43:16.142Z,22.63
2022-09-03T09:45:53.478Z,22.92
2022-09-03T09:48:37.591Z,22.90
2022-09-03T09:51:13.650Z,22.55
2022-09-03T09:53:41.246Z,22.59
2022-09-03T09:56:08.299Z,22.41
2022-09-03T09:58:35.667Z,22.74
2022-09-03T10:01:04.785Z,22.71
2022-09-03T10:03:35.724Z,22.65
2022-09-03T10:06:34.104Z,22.83
2022-09-03T10:09:12.921Z,22.72
2022-09-03T10:11:45.143Z,22.63
2022-09-03T10:14:31.160Z,22.60
2022-09-03T10:17:10.695Z,22.63
2022-09-03T10:20:07.125Z,23.00
2022-09-03T10:22:47.109Z,22.80
2022-09-03T10:25:29.280Z,22.28
2022-09-03T10:27:57.510Z,22.05
2022-09-03T10:30:26.678Z,22.24
2022-09-03T10:33:19.125Z,22.13
2022-09-03T10:36:07.858Z,22.47
2022-09-03T10:38:36.636Z,22.76
2022-09-03T10:41:31.244Z,22.78
2022-09-03T10:44:13.291Z,22.96
2022-09-03T10:46:57.418Z,22.79
2022-09-03T10:49:38.856Z,22.92
2022-09-03T10:52:27.093Z,22.40
2022-09-03T10:55:00.124Z,22.53
2022-09-03T10:57:56.923Z,22.59
2022-09-03T11:00:24.322Z,22.56
2022-09-03T11:03:14.118Z,23.14
2022-09-03T11:05:59.907Z,23.50
2022-09-03T11:08:43.122Z,23.30
2022-09-03T11:11:21.868Z,23.32
2022-09-03T11:14:09.255Z,23.38
2022-09-03T11:16:48.114Z,23.01
2022-09-03T11:19:24.698Z,22.51
2022-09-03T11:21:52.743Z,22.83
2022-09-03T11:24:24.969Z,22.96
2022-09-03T11:27:30.638Z,22.95
2022-09-03T11:30:10.301Z,22.99
2022-09-03T11:32:57.093Z,23.02
2022-09-03T11:35:32.974Z,22.91
2022-09-03T11:38:05.848Z,22.62
2022-09-03T11:40:38.051Z,22.22
2022-09-03T11:43:12.812Z,23.04
2022-09-03T11:45:39.989Z,22.23
2022-09-03T11:48:46.609Z,22.25
2022-09-03T11:51:36.010Z,22.08
2022-09-03T11:54:21.005Z,22.15
2022-09-03T11:56:50.542Z,22.15
2022-09-03T11:59:20.616Z,22.32
2022-09-03T12:01:53.362Z,22.29
2022-09-03T12:04:26.012Z,22.01
2022-09-03T12:07:14.129Z,21.74
2022-09-03T12:10:03.361Z,22.49
2022-09-03T12:12:48.371Z,22.90
2022-09-03T12:15:15.018Z,22.20
2022-09-03T12:18:15.073Z,22.02
2022-09-03T12:20:44.979Z,22.29
2022-09-03T12:23:25.667Z,22.73
2022-09-03T12:25:53.287Z,22.83
2022-09-03T12:28:23.557Z,22.95
2022-09-03T12:30:53.429Z,22.89
2022-09-03T12:33:22.891Z,23.00
2022-09-03T12:36:01.354Z,22.59
2022-09-03T12:38:44.570Z,22.89
2022-09-03T12:41:26.808Z,22.85
2022-09-03T12:43:59.825Z,22.95
2022-09-03T12:46:34.202Z,22.53
2022-09-03T12:52:01.809Z,22.57
2022-09-03T12:54:31.955Z,23.06
2022-09-03T12:57:00.236Z,23.33
2022-09-03T12:59:32.513Z,23.46
2022-09-03T13:02:06.683Z,23.20
2022-09-03T13:04:36.841Z,23.41
2022-09-03T13:07:13.126Z,23.60
2022-09-03T13:09:42.201Z,23.36
2022-09-03T13:12:22.057Z,23.47
2022-09-03T13:14:52.764Z,23.00
2022-09-03T13:17:48.967Z,23.14
2022-09-03T13:20:34.086Z,23.44
2022-09-03T13:23:22.120Z,23.02
2022-09-03T13:25:55.018Z,23.38
2022-09-03T13:28:48.426Z,23.78
2022-09-03T13:31:38.863Z,23.62
2022-09-03T13:34:12.161Z,23.07
2022-09-03T13:36:49.483Z,22.40
2022-09-03T13:39:28.142Z,22.28
2022-09-03T13:42:06.034Z,22.35
2022-09-03T13:44:55.770Z,22.29
2022-09-03T13:48:01.183Z,22.55
2022-09-03T13:50:31.350Z,22.84
2022-09-03T13:53:04.397Z,22.80
2022-09-03T13:55:40.466Z,22.62
2022-09-03T13:58:11.807Z,22.30
2022-09-03T14:00:46.113Z,22.31
2022-09-03T14:04:05.357Z,22.15
2022-09-03T14:06:43.023Z,22.58
2022-09-03T14:09:21.508Z,22.47
2022-09-03T14:12:10.146Z,22.47
2022-09-03T14:14:46.734Z,22.47
2022-09-03T14:17:27.345Z,22.63
2022-09-03T14:20:12.558Z,22.55
2022-09-03T14:22:58.141Z,22.29
2022-09-03T14:25:27.269Z,22.20
2022-09-03T14:27:56.202Z,22.50
2022-09-03T14:31:21.683Z,22.48
2022-09-03T14:34:26.655Z,23.01
2022-09-03T14:37:48.668Z,23.20
2022-09-03T14:40:47.310Z,23.03
2022-09-03T14:43:38.739Z,22.86
2022-09-03T14:46:17.558Z,22.95
2022-09-03T14:49:24.789Z,22.39
2022-09-03T14:51:54.452Z,22.42
2022-09-03T14:54:24.071Z,22.34
2022-09-03T14:57:00.804Z,22.25
2022-09-03T15:00:05.381Z,22.12
2022-09-03T15:02:35.330Z,22.30
2022-09-03T15:05:20.287Z,22.40
2022-09-03T15:07:51.696Z,22.55
2022-09-03T15:10:42.722Z,22.67
2022-09-03T15:13:23.983Z,22.09
2022-09-03T15:16:02.288Z,22.41
2022-09-03T15:19:04.763Z,22.61
2022-09-03T15:21:52.819Z,22.42
2022-09-03T15:24:57.997Z,22.51
2022-09-03T15:27:52.587Z,22.21
2022-09-03T15:30:20.233Z,22.35
2022-09-03T15:32:56.286Z,22.30
2022-09-03T15:35:41.388Z,22.27
2022-09-03T15:38:31.329Z,21.95
2022-09-03T15:41:04.652Z,22.31
2022-09-03T15:43:33.887Z,22.08
2022-09-03T15:46:00.538Z,22.05
2022-09-03T15:48:27.215Z,22.11
2022-09-03T15:51:10.541Z,21.89
2022-09-03T15:53:50.178Z,21.82
2022-09-03T15:56:27.080Z,21.82
2022-09-03T15:59:12.207Z,21.72
2022-09-03T16:01:44.739Z,21.60
2022-09-03T16:04:29.878Z,21.70
2022-09-03T16:07:19.830Z,21.97
2022-09-03T16:10:24.183Z,21.77
2022-09-03T16:13:26.777Z,21.86
2022-09-03T16:16:06.554Z,21.93
2022-09-03T16:18:55.055Z,21.87
2022-09-03T16:21:32.803Z,21.84
2022-09-03T16:24:22.405Z,21.76
2022-09-03T16:27:05.445Z,21.65
2022-09-03T16:29:32.321Z,21.65
2022-09-03T16:32:31.782Z,21.44
2022-09-03T16:35:24.179Z,21.18
2022-09-03T16:38:10.810Z,21.12
2022-09-03T16:40:45.254Z,20.87
2022-09-03T16:43:40.052Z,20.79
2022-09-03T16:46:23.554Z,20.92
2022-09-03T16:48:53.385Z,20.77
2022-09-03T16:51:35.014Z,20.82
2022-09-03T16:54:18.780Z,20.74
2022-09-03T16:56:51.069Z,20.75
2022-09-03T16:59:30.813Z,20.87
2022-09-03T17:02:39.979Z,20.55
2022-09-03T17:05:14.680Z,20.64
2022-09-03T17:07:57.361Z,20.53
2022-09-03T17:10:47.155Z,20.39
2022-09-03T17:13:32.024Z,20.54
2022-09-03T17:16:08.386Z,20.46
2022-09-03T17:18:57.547Z,20.37
2022-09-03T17:22:03.183Z,20.45
2022-09-03T17:24:41.426Z,20.53
2022-09-03T17:27:23.436Z,20.53
2022-09-03T17:30:04.512Z,20.39
2022-09-03T17:32:57.346Z,20.31
2022-09-03T17:35:59.501Z,20.12
2022-09-03T17:38:41.423Z,20.20
2022-09-03T17:41:20.564Z,20.20
2022-09-03T17:43:59.668Z,20.33
2022-09-03T17:46:45.283Z,20.12
2022-09-03T17:49:24.045Z,19.97
2022-09-03T17:52:20.443Z,19.79
2022-09-03T17:54:55.900Z,19.84
2022-09-03T17:57:40.010Z,19.71
2022-09-03T18:00:09.904Z,19.59
2022-09-03T18:02:51.996Z,19.44
2022-09-03T18:05:26.043Z,19.43
2022-09-03T18:08:18.321Z,19.30
2022-09-03T18:10:49.425Z,19.31
2022-09-03T18:13:31.613Z,19.26
2022-09-03T18:16:09.703Z,19.19
2022-09-03T18:18:43.768Z,19.26
2022-09-03T18:21:32.955Z,19.09
2022-09-03T18:24:25.359Z,19.10
2022-09-03T18:27:18.936Z,18.95
2022-09-03T18:30:21.485Z,18.94
2022-09-03T18:33:07.408Z,18.84
2022-09-03T18:35:53.626Z,18.81
2022-09-03T18:38:47.287Z,18.74
2022-09-03T18:42:08.682Z,18.83
2022-09-03T18:45:11.979Z,18.89
2022-09-03T18:48:20.316Z,18.84
2022-09-03T18:51:54.380Z,18.81
2022-09-03T18:55:26.706Z,18.61
2022-09-03T18:58:43.200Z,18.64
2022-09-03T19:01:37.824Z,18.48
2022-09-03T19:04:32.260Z,18.51
2022-09-03T19:07:31.360Z,18.50
2022-09-03T19:10:26.360Z,18.46
2022-09-03T19:13:17.520Z,18.50
2022-09-03T19:16:22.289Z,18.41
2022-09-03T19:19:29.531Z,18.43
2022-09-03T19:22:23.359Z,18.40
2022-09-03T19:25:14.965Z,18.37
2022-09-03T19:28:29.128Z,18.40
2022-09-03T19:31:43.984Z,18.33
2022-09-03T19:34:45.949Z,18.29
2022-09-03T19:37:48.734Z,18.29
2022-09-03T19:40:34.211Z,18.22
2022-09-03T19:43:37.001Z,18.13
2022-09-03T19:46:34.987Z,18.23
2022-09-03T19:50:00.236Z,18.19
2022-09-03T19:52:55.931Z,18.16
2022-09-03T19:55:45.725Z,18.12
2022-09-03T19:58:43.611Z,18.11
2022-09-03T20:01:29.412Z,18.10
2022-09-03T20:04:19.451Z,17.92
2022-09-03T20:07:05.558Z,17.94
2022-09-03T20:09:58.510Z,17.91
2022-09-03T20:12:28.968Z,17.88
2022-09-03T20:14:55.814Z,17.80
2022-09-03T20:17:37.856Z,17.93
2022-09-03T20:20:57.231Z,17.77
2022-09-03T20:23:36.235Z,17.86
2022-09-03T20:26:40.592Z,17.86
2022-09-03T20:30:13.246Z,17.73
2022-09-03T20:32:49.112Z,17.75
2022-09-03T20:35:26.249Z,17.66
2022-09-03T20:38:38.789Z,17.74
2022-09-03T20:41:11.377Z,17.64
2022-09-03T20:44:08.493Z,17.54
2022-09-03T20:47:07.359Z,17.63
2022-09-03T20:49:56.578Z,17.55
2022-09-03T20:52:54.288Z,17.55
2022-09-03T20:55:33.095Z,17.38
2022-09-03T20:58:16.462Z,17.57
2022-09-03T21:00:55.274Z,17.46
2022-09-03T21:03:24.548Z,17.38
2022-09-03T21:06:21.673Z,17.41
2022-09-03T21:08:48.308Z,17.44
2022-09-03T21:11:31.227Z,17.47
2022-09-03T21:14:14.667Z,17.22
2022-09-03T21:16:49.909Z,17.35
2022-09-03T21:19:25.780Z,17.28
2022-09-03T21:22:15.648Z,17.20
2022-09-03T21:25:01.374Z,17.09
2022-09-03T21:27:36.377Z,17.19
2022-09-03T21:30:07.914Z,17.10
2022-09-03T21:32:44.136Z,17.13
2022-09-03T21:35:40.130Z,17.00
2022-09-03T21:38:12.679Z,17.19
2022-09-03T21:40:47.610Z,17.09
2022-09-03T21:43:54.826Z,17.14
2022-09-03T21:46:26.998Z,16.96
2022-09-03T21:49:00.627Z,16.95
2022-09-03T21:51:39.492Z,17.00
2022-09-03T21:54:12.806Z,16.97
2022-09-03T21:56:45.430Z,16.98
2022-09-03T21:59:36.710Z,16.86
2022-09-03T22:02:26.579Z,16.83
2022-09-03T22:04:55.106Z,16.87
2022-09-03T22:07:26.556Z,16.71
2022-09-03T22:10:07.814Z,16.70
2022-09-03T22:13:15.372Z,16.67
2022-09-03T22:15:51.608Z,16.64
2022-09-03T22:18:28.973Z,16.63
2022-09-03T22:21:16.480Z,16.55
2022-09-03T22:23:58.633Z,16.70
2022-09-03T22:26:38.193Z,16.62
2022-09-03T22:29:22.286Z,16.57
2022-09-03T22:31:56.728Z,16.45
2022-09-03T22:34:44.188Z,16.61
2022-09-03T22:37:31.690Z,16.58
2022-09-03T22:40:26.457Z,16.51
2022-09-03T22:43:16.663Z,16.50
2022-09-03T22:46:04.605Z,16.57
2022-09-03T22:48:53.372Z,16.56
2022-09-03T22:51:21.914Z,16.49
2022-09-03T22:54:12.296Z,16.57
2022-09-03T22:56:41.415Z,16.54
2022-09-03T22:59:20.433Z,16.58
2022-09-03T23:02:11.460Z,16.52
2022-09-03T23:04:56.909Z,16.54
2022-09-03T23:07:42.487Z,16.45
2022-09-03T23:10:14.609Z,16.56
2022-09-03T23:13:09.648Z,16.48
2022-09-03T23:15:39.554Z,16.51
2022-09-03T23:18:17.717Z,16.46
2022-09-03T23:20:55.276Z,16.47
2022-09-03T23:23:34.307Z,16.48
2022-09-03T23:26:15.466Z,16.58
2022-09-03T23:28:49.238Z,16.59
2022-09-03T23:31:25.724Z,16.58
2022-09-03T23:33:54.630Z,16.55
2022-09-03T23:37:10.271Z,16.61
2022-09-03T23:40:10.379Z,16.71
2022-09-03T23:43:01.004Z,16.75
2022-09-03T23:45:45.990Z,16.71
2022-09-03T23:48:36.625Z,16.72
2022-09-03T23:51:42.050Z,16.79
2022-09-03T23:54:35.609Z,16.75
2022-09-03T23:57:40.053Z,16.73
